sensor_id;sensor_type;location;lat;lon;timestamp;temperature;humidity
46458;DHT22;32155;54.076;12.092;2024-03-23T01:00:37;7.40;99.90
46458;DHT22;32155;54.076;12.092;2024-03-23T01:06:29;7.30;99.90
46458;DHT22;32155;54.076;12.092;2024-03-23T01:15:08;7.20;99.90
46458;DHT22;32155;54.076;12.092;2024-03-23T01:17:39;7.20;99.90
46458;DHT22;32155;54.076;12.092;2024-03-23T01:23:37;7.00;99.90
46458;DHT22;32155;54.076;12.092;2024-03-23T01:26:11;7.10;99.90
46458;DHT22;32155;54.076;12.092;2024-03-23T01:28:45;7.10;99.90
46458;DHT22;32155;54.076;12.092;2024-03-23T01:31:17;7.00;99.90
46458;DHT22;32155;54.076;12.092;2024-03-23T01:33:51;7.00;99.90
46458;DHT22;32155;54.076;12.092;2024-03-23T01:36:42;6.90;99.90
46458;DHT22;32155;54.076;12.092;2024-03-23T01:39:12;6.90;99.90
46458;DHT22;32155;54.076;12.092;2024-03-23T01:41:40;6.90;99.90
46458;DHT22;32155;54.076;12.092;2024-03-23T01:44:12;6.90;99.90
46458;DHT22;32155;54.076;12.092;2024-03-23T01:49:54;6.80;99.90
46458;DHT22;32155;54.076;12.092;2024-03-23T01:52:32;6.80;99.90
46458;DHT22;32155;54.076;12.092;2024-03-23T01:55:03;6.70;99.90
46458;DHT22;32155;54.076;12.092;2024-03-23T02:13:30;6.70;99.90
46458;DHT22;32155;54.076;12.092;2024-03-23T02:35:03;6.60;99.90
46458;DHT22;32155;54.076;12.092;2024-03-23T02:41:03;6.60;99.90
46458;DHT22;32155;54.076;12.092;2024-03-23T03:08:26;6.30;99.90
46458;DHT22;32155;54.076;12.092;2024-03-23T03:11:00;6.30;99.90
46458;DHT22;32155;54.076;12.092;2024-03-23T03:13:39;6.30;99.90
46458;DHT22;32155;54.076;12.092;2024-03-23T03:16:22;6.20;99.90
46458;DHT22;32155;54.076;12.092;2024-03-23T03:18:48;6.20;99.90
46458;DHT22;32155;54.076;12.092;2024-03-23T03:21:18;6.20;99.90
46458;DHT22;32155;54.076;12.092;2024-03-23T03:23:47;6.10;99.90
46458;DHT22;32155;54.076;12.092;2024-03-23T03:26:18;6.10;99.90
46458;DHT22;32155;54.076;12.092;2024-03-23T03:28:50;6.00;99.90
46458;DHT22;32155;54.076;12.092;2024-03-23T03:31:18;6.00;99.90
46458;DHT22;32155;54.076;12.092;2024-03-23T03:33:49;6.00;99.90
46458;DHT22;32155;54.076;12.092;2024-03-23T03:39:42;5.90;99.90
46458;DHT22;32155;54.076;12.092;2024-03-23T03:42:12;5.90;99.90
46458;DHT22;32155;54.076;12.092;2024-03-23T03:44:41;5.90;99.90
46458;DHT22;32155;54.076;12.092;2024-03-23T03:47:15;5.80;99.90
46458;DHT22;32155;54.076;12.092;2024-03-23T03:49:44;5.70;99.90
46458;DHT22;32155;54.076;12.092;2024-03-23T03:52:19;5.60;99.90
46458;DHT22;32155;54.076;12.092;2024-03-23T03:54:53;5.70;99.90
46458;DHT22;32155;54.076;12.092;2024-03-23T04:00:47;5.50;99.90
46458;DHT22;32155;54.076;12.092;2024-03-23T04:53:31;5.20;99.90
46458;DHT22;32155;54.076;12.092;2024-03-23T05:05:41;5.20;99.90
46458;DHT22;32155;54.076;12.092;2024-03-23T05:11:17;5.30;99.90
46458;DHT22;32155;54.076;12.092;2024-03-23T05:17:13;5.20;99.90
46458;DHT22;32155;54.076;12.092;2024-03-23T05:19:56;5.30;99.90
46458;DHT22;32155;54.076;12.092;2024-03-23T05:22:36;5.30;99.90
46458;DHT22;32155;54.076;12.092;2024-03-23T05:25:10;5.30;99.90
46458;DHT22;32155;54.076;12.092;2024-03-23T05:27:54;5.30;99.90
46458;DHT22;32155;54.076;12.092;2024-03-23T05:30:23;5.20;99.90
46458;DHT22;32155;54.076;12.092;2024-03-23T05:32:51;5.30;99.90
46458;DHT22;32155;54.076;12.092;2024-03-23T05:35:30;5.30;99.90
46458;DHT22;32155;54.076;12.092;2024-03-23T05:38:33;5.20;99.90
46458;DHT22;32155;54.076;12.092;2024-03-23T05:44:04;5.30;99.90
46458;DHT22;32155;54.076;12.092;2024-03-23T05:50:28;5.50;99.90
46458;DHT22;32155;54.076;12.092;2024-03-23T05:59:57;5.70;99.90
46458;DHT22;32155;54.076;12.092;2024-03-23T06:18:50;6.40;99.90
46458;DHT22;32155;54.076;12.092;2024-03-23T06:21:24;6.50;99.90
46458;DHT22;32155;54.076;12.092;2024-03-23T06:24:24;6.60;99.90
46458;DHT22;32155;54.076;12.092;2024-03-23T06:27:03;6.90;99.90
46458;DHT22;32155;54.076;12.092;2024-03-23T06:30:47;7.10;99.90
46458;DHT22;32155;54.076;12.092;2024-03-23T06:42:02;7.80;99.90
46458;DHT22;32155;54.076;12.092;2024-03-23T06:44:30;7.90;99.90
46458;DHT22;32155;54.076;12.092;2024-03-23T06:53:36;8.10;99.90
46458;DHT22;32155;54.076;12.092;2024-03-23T06:59:37;7.90;99.90
46458;DHT22;32155;54.076;12.092;2024-03-23T07:17:21;8.40;99.90
46458;DHT22;32155;54.076;12.092;2024-03-23T07:20:08;8.40;99.90
46458;DHT22;32155;54.076;12.092;2024-03-23T07:22:51;8.30;99.90
46458;DHT22;32155;54.076;12.092;2024-03-23T07:26:02;8.30;99.90
46458;DHT22;32155;54.076;12.092;2024-03-23T07:28:45;8.30;99.90
46458;DHT22;32155;54.076;12.092;2024-03-23T07:31:12;8.40;99.90
46458;DHT22;32155;54.076;12.092;2024-03-23T07:33:53;8.30;99.90
46458;DHT22;32155;54.076;12.092;2024-03-23T07:36:35;8.50;99.90
46458;DHT22;32155;54.076;12.092;2024-03-23T07:39:15;8.70;99.90
46458;DHT22;32155;54.076;12.092;2024-03-23T07:44:52;9.50;99.90
46458;DHT22;32155;54.076;12.092;2024-03-23T07:47:23;9.80;99.90
46458;DHT22;32155;54.076;12.092;2024-03-23T07:49:51;9.70;99.90
46458;DHT22;32155;54.076;12.092;2024-03-23T07:52:23;9.50;99.90
46458;DHT22;32155;54.076;12.092;2024-03-23T07:54:52;9.40;99.90
46458;DHT22;32155;54.076;12.092;2024-03-23T07:57:30;9.40;99.90
46458;DHT22;32155;54.076;12.092;2024-03-23T08:00:16;10.00;99.90
46458;DHT22;32155;54.076;12.092;2024-03-23T08:05:46;10.80;99.90
46458;DHT22;32155;54.076;12.092;2024-03-23T08:08:24;11.60;99.90
46458;DHT22;32155;54.076;12.092;2024-03-23T08:11:06;12.00;99.90
46458;DHT22;32155;54.076;12.092;2024-03-23T08:19:49;14.00;99.90
46458;DHT22;32155;54.076;12.092;2024-03-23T08:22:35;12.80;99.90
46458;DHT22;32155;54.076;12.092;2024-03-23T08:25:23;12.10;99.90
46458;DHT22;32155;54.076;12.092;2024-03-23T08:27:51;11.70;99.90
46458;DHT22;32155;54.076;12.092;2024-03-23T08:30:38;11.50;99.90
46458;DHT22;32155;54.076;12.092;2024-03-23T08:33:11;11.50;99.90
46458;DHT22;32155;54.076;12.092;2024-03-23T08:41:34;12.60;99.90
46458;DHT22;32155;54.076;12.092;2024-03-23T08:50:33;12.90;99.90
46458;DHT22;32155;54.076;12.092;2024-03-23T08:56:14;12.10;99.90
46458;DHT22;32155;54.076;12.092;2024-03-23T08:59:06;11.60;99.90
46458;DHT22;32155;54.076;12.092;2024-03-23T09:02:05;11.40;99.90
46458;DHT22;32155;54.076;12.092;2024-03-23T09:42:16;18.80;99.90
46458;DHT22;32155;54.076;12.092;2024-03-23T09:44:51;18.90;99.90
46458;DHT22;32155;54.076;12.092;2024-03-23T09:47:20;19.40;99.90
46458;DHT22;32155;54.076;12.092;2024-03-23T09:50:13;21.30;99.90
46458;DHT22;32155;54.076;12.092;2024-03-23T09:52:47;21.00;99.90
46458;DHT22;32155;54.076;12.092;2024-03-23T09:55:13;22.00;99.90
46458;DHT22;32155;54.076;12.092;2024-03-23T09:57:42;22.20;99.90
46458;DHT22;32155;54.076;12.092;2024-03-23T10:03:42;23.50;99.90
46458;DHT22;32155;54.076;12.092;2024-03-23T10:09:55;25.20;95.40
46458;DHT22;32155;54.076;12.092;2024-03-23T10:58:59;13.60;97.60
46458;DHT22;32155;54.076;12.092;2024-03-23T11:23:42;21.10;90.10
46458;DHT22;32155;54.076;12.092;2024-03-23T11:26:10;21.80;86.50
46458;DHT22;32155;54.076;12.092;2024-03-23T11:28:36;24.10;84.70
46458;DHT22;32155;54.076;12.092;2024-03-23T11:31:08;27.30;75.70
46458;DHT22;32155;54.076;12.092;2024-03-23T11:33:34;29.10;67.10
46458;DHT22;32155;54.076;12.092;2024-03-23T11:48:28;25.70;60.10
46458;DHT22;32155;54.076;12.092;2024-03-23T11:56:45;20.90;70.10
46458;DHT22;32155;54.076;12.092;2024-03-23T11:59:39;18.10;76.80
46458;DHT22;32155;54.076;12.092;2024-03-23T12:02:29;15.50;85.50
46458;DHT22;32155;54.076;12.092;2024-03-23T12:05:13;14.00;91.20
46458;DHT22;32155;54.076;12.092;2024-03-23T12:08:18;13.50;93.70
46458;DHT22;32155;54.076;12.092;2024-03-23T12:10:47;13.50;95.20
46458;DHT22;32155;54.076;12.092;2024-03-23T12:13:17;13.40;96.00
46458;DHT22;32155;54.076;12.092;2024-03-23T12:15:49;13.20;97.00
46458;DHT22;32155;54.076;12.092;2024-03-23T12:18:24;12.60;99.10
46458;DHT22;32155;54.076;12.092;2024-03-23T12:21:05;11.90;99.90
46458;DHT22;32155;54.076;12.092;2024-03-23T12:23:39;11.40;99.90
46458;DHT22;32155;54.076;12.092;2024-03-23T12:26:28;11.00;99.90
46458;DHT22;32155;54.076;12.092;2024-03-23T12:29:02;12.60;99.90
46458;DHT22;32155;54.076;12.092;2024-03-23T12:31:53;15.00;99.90
46458;DHT22;32155;54.076;12.092;2024-03-23T12:49:50;22.30;83.10
46458;DHT22;32155;54.076;12.092;2024-03-23T12:55:48;20.20;88.10
46458;DHT22;32155;54.076;12.092;2024-03-23T12:58:17;19.40;91.40
46458;DHT22;32155;54.076;12.092;2024-03-23T13:00:52;20.40;89.00
46458;DHT22;32155;54.076;12.092;2024-03-23T13:03:28;20.40;92.30
46458;DHT22;32155;54.076;12.092;2024-03-23T13:06:01;23.60;84.30
46458;DHT22;32155;54.076;12.092;2024-03-23T13:08:32;22.70;84.50
46458;DHT22;32155;54.076;12.092;2024-03-23T13:10:58;21.60;87.50
46458;DHT22;32155;54.076;12.092;2024-03-23T13:13:24;20.90;89.50
46458;DHT22;32155;54.076;12.092;2024-03-23T13:15:52;20.00;88.60
46458;DHT22;32155;54.076;12.092;2024-03-23T13:18:20;18.40;90.80
46458;DHT22;32155;54.076;12.092;2024-03-23T13:20:46;16.90;93.10
46458;DHT22;32155;54.076;12.092;2024-03-23T13:23:13;15.50;94.90
46458;DHT22;32155;54.076;12.092;2024-03-23T13:25:45;14.30;98.10
46458;DHT22;32155;54.076;12.092;2024-03-23T13:28:20;13.30;99.90
46458;DHT22;32155;54.076;12.092;2024-03-23T13:34:04;12.40;99.90
46458;DHT22;32155;54.076;12.092;2024-03-23T14:23:01;27.10;63.00
46458;DHT22;32155;54.076;12.092;2024-03-23T14:31:38;21.90;70.70
46458;DHT22;32155;54.076;12.092;2024-03-23T14:34:04;19.90;77.20
46458;DHT22;32155;54.076;12.092;2024-03-23T14:36:32;18.10;80.40
46458;DHT22;32155;54.076;12.092;2024-03-23T14:39:03;16.20;83.90
46458;DHT22;32155;54.076;12.092;2024-03-23T14:41:47;14.50;89.30
46458;DHT22;32155;54.076;12.092;2024-03-23T15:15:21;15.30;99.90
46458;DHT22;32155;54.076;12.092;2024-03-23T15:18:11;16.20;99.90
46458;DHT22;32155;54.076;12.092;2024-03-23T15:21:03;16.40;99.90
46458;DHT22;32155;54.076;12.092;2024-03-23T15:23:34;15.50;99.90
46458;DHT22;32155;54.076;12.092;2024-03-23T15:26:03;14.40;99.90
46458;DHT22;32155;54.076;12.092;2024-03-23T15:28:29;13.30;99.90
46458;DHT22;32155;54.076;12.092;2024-03-23T15:31:27;12.40;99.90
46458;DHT22;32155;54.076;12.092;2024-03-23T15:33:53;11.70;99.90
46458;DHT22;32155;54.076;12.092;2024-03-23T15:36:22;11.40;99.90
46458;DHT22;32155;54.076;12.092;2024-03-23T15:38:51;11.30;99.90
46458;DHT22;32155;54.076;12.092;2024-03-23T15:42:02;11.20;99.90
46458;DHT22;32155;54.076;12.092;2024-03-23T15:44:10;10.80;99.90
46458;DHT22;32155;54.076;12.092;2024-03-23T15:46:39;10.80;99.90
46458;DHT22;32155;54.076;12.092;2024-03-23T15:49:05;10.80;99.90
46458;DHT22;32155;54.076;12.092;2024-03-23T15:51:31;10.70;99.90
46458;DHT22;32155;54.076;12.092;2024-03-23T15:54:25;10.70;99.90
46458;DHT22;32155;54.076;12.092;2024-03-23T15:56:51;10.50;99.90
46458;DHT22;32155;54.076;12.092;2024-03-23T15:59:29;10.30;99.90
46458;DHT22;32155;54.076;12.092;2024-03-23T16:02:15;10.10;99.90
46458;DHT22;32155;54.076;12.092;2024-03-23T16:04:41;9.80;99.90
46458;DHT22;32155;54.076;12.092;2024-03-23T16:07:16;9.40;99.90
46458;DHT22;32155;54.076;12.092;2024-03-23T16:09:45;9.30;99.90
46458;DHT22;32155;54.076;12.092;2024-03-23T16:12:13;9.30;99.90
46458;DHT22;32155;54.076;12.092;2024-03-23T16:14:49;9.40;99.90
46458;DHT22;32155;54.076;12.092;2024-03-23T16:17:39;9.30;99.90
46458;DHT22;32155;54.076;12.092;2024-03-23T16:20:05;9.40;99.90
46458;DHT22;32155;54.076;12.092;2024-03-23T16:22:41;9.30;99.90
46458;DHT22;32155;54.076;12.092;2024-03-23T16:25:10;9.20;99.90
46458;DHT22;32155;54.076;12.092;2024-03-23T16:27:36;9.20;99.90
46458;DHT22;32155;54.076;12.092;2024-03-23T16:30:05;9.10;99.90
46458;DHT22;32155;54.076;12.092;2024-03-23T16:32:48;9.10;99.90
46458;DHT22;32155;54.076;12.092;2024-03-23T16:35:14;9.20;99.90
46458;DHT22;32155;54.076;12.092;2024-03-23T16:37:40;9.30;99.90
46458;DHT22;32155;54.076;12.092;2024-03-23T16:40:07;9.30;99.90
46458;DHT22;32155;54.076;12.092;2024-03-23T16:45:43;9.30;99.90
46458;DHT22;32155;54.076;12.092;2024-03-23T16:48:23;9.40;99.90
46458;DHT22;32155;54.076;12.092;2024-03-23T16:51:00;9.30;99.90
46458;DHT22;32155;54.076;12.092;2024-03-23T16:53:35;9.20;99.90
46458;DHT22;32155;54.076;12.092;2024-03-23T16:56:05;9.20;99.90
46458;DHT22;32155;54.076;12.092;2024-03-23T17:01:51;8.80;99.90
46458;DHT22;32155;54.076;12.092;2024-03-23T17:04:49;8.60;99.90
46458;DHT22;32155;54.076;12.092;2024-03-23T17:07:23;8.50;99.90
46458;DHT22;32155;54.076;12.092;2024-03-23T17:10:08;8.40;99.90
46458;DHT22;32155;54.076;12.092;2024-03-23T17:12:39;8.30;99.90
46458;DHT22;32155;54.076;12.092;2024-03-23T17:15:11;8.10;99.90
46458;DHT22;32155;54.076;12.092;2024-03-23T17:17:37;7.90;99.90
46458;DHT22;32155;54.076;12.092;2024-03-23T17:20:05;7.90;99.90
46458;DHT22;32155;54.076;12.092;2024-03-23T17:22:34;7.90;99.90
46458;DHT22;32155;54.076;12.092;2024-03-23T17:25:03;7.70;99.90
46458;DHT22;32155;54.076;12.092;2024-03-23T17:27:31;7.70;99.90
46458;DHT22;32155;54.076;12.092;2024-03-23T17:32:54;7.50;99.90
46458;DHT22;32155;54.076;12.092;2024-03-23T17:35:19;7.30;99.90
46458;DHT22;32155;54.076;12.092;2024-03-23T17:37:47;7.20;99.90
46458;DHT22;32155;54.076;12.092;2024-03-23T17:40:14;7.10;99.90
46458;DHT22;32155;54.076;12.092;2024-03-23T17:42:43;7.10;99.90
46458;DHT22;32155;54.076;12.092;2024-03-23T17:45:11;7.20;99.90
46458;DHT22;32155;54.076;12.092;2024-03-23T17:47:39;7.00;99.90
46458;DHT22;32155;54.076;12.092;2024-03-23T17:50:08;6.90;99.90
46458;DHT22;32155;54.076;12.092;2024-03-23T17:52:37;6.90;99.90
46458;DHT22;32155;54.076;12.092;2024-03-23T17:55:25;6.80;99.90
46458;DHT22;32155;54.076;12.092;2024-03-23T17:58:12;6.80;99.90
46458;DHT22;32155;54.076;12.092;2024-03-23T18:00:43;6.80;99.90
46458;DHT22;32155;54.076;12.092;2024-03-23T18:03:09;6.70;99.90
46458;DHT22;32155;54.076;12.092;2024-03-23T18:05:34;6.70;99.90
46458;DHT22;32155;54.076;12.092;2024-03-23T18:08:23;6.70;99.90
46458;DHT22;32155;54.076;12.092;2024-03-23T18:10:59;6.60;99.90
46458;DHT22;32155;54.076;12.092;2024-03-23T18:13:52;6.60;99.90
46458;DHT22;32155;54.076;12.092;2024-03-23T18:16:33;6.60;99.90
46458;DHT22;32155;54.076;12.092;2024-03-23T18:18:59;6.50;99.90
46458;DHT22;32155;54.076;12.092;2024-03-23T18:21:40;6.50;99.90
46458;DHT22;32155;54.076;12.092;2024-03-23T18:24:06;6.40;99.90
46458;DHT22;32155;54.076;12.092;2024-03-23T18:26:37;6.40;99.90
46458;DHT22;32155;54.076;12.092;2024-03-23T18:29:24;6.20;99.90
46458;DHT22;32155;54.076;12.092;2024-03-23T18:31:54;6.10;99.90
46458;DHT22;32155;54.076;12.092;2024-03-23T18:34:23;6.10;99.90
46458;DHT22;32155;54.076;12.092;2024-03-23T18:36:58;6.10;99.90
46458;DHT22;32155;54.076;12.092;2024-03-23T18:39:26;6.10;99.90
46458;DHT22;32155;54.076;12.092;2024-03-23T18:42:29;6.10;99.90
46458;DHT22;32155;54.076;12.092;2024-03-23T18:45:25;6.10;99.90
46458;DHT22;32155;54.076;12.092;2024-03-23T18:48:00;5.90;99.90
46458;DHT22;32155;54.076;12.092;2024-03-23T18:50:25;6.00;99.90
46458;DHT22;32155;54.076;12.092;2024-03-23T18:52:57;5.90;99.90
46458;DHT22;32155;54.076;12.092;2024-03-23T18:55:59;5.90;99.90
46458;DHT22;32155;54.076;12.092;2024-03-23T18:59:03;5.80;99.90
46458;DHT22;32155;54.076;12.092;2024-03-23T19:01:25;5.70;99.90
46458;DHT22;32155;54.076;12.092;2024-03-23T19:03:53;5.60;99.90
46458;DHT22;32155;54.076;12.092;2024-03-23T19:06:22;5.60;99.90
46458;DHT22;32155;54.076;12.092;2024-03-23T19:08:48;5.60;99.90
46458;DHT22;32155;54.076;12.092;2024-03-23T19:11:13;5.50;99.90
46458;DHT22;32155;54.076;12.092;2024-03-23T19:13:47;5.50;99.90
46458;DHT22;32155;54.076;12.092;2024-03-23T19:16:18;5.40;99.90
46458;DHT22;32155;54.076;12.092;2024-03-23T19:18:52;5.40;99.90
46458;DHT22;32155;54.076;12.092;2024-03-23T19:21:25;5.30;99.90
46458;DHT22;32155;54.076;12.092;2024-03-23T19:24:02;5.30;99.90
46458;DHT22;32155;54.076;12.092;2024-03-23T19:26:28;5.20;99.90
46458;DHT22;32155;54.076;12.092;2024-03-23T19:28:56;5.20;99.90
46458;DHT22;32155;54.076;12.092;2024-03-23T19:31:29;5.20;99.90
46458;DHT22;32155;54.076;12.092;2024-03-23T19:33:55;5.10;99.90
46458;DHT22;32155;54.076;12.092;2024-03-23T19:36:26;5.00;99.90
46458;DHT22;32155;54.076;12.092;2024-03-23T19:38:54;5.00;99.90
46458;DHT22;32155;54.076;12.092;2024-03-23T19:41:21;4.90;99.90
46458;DHT22;32155;54.076;12.092;2024-03-23T19:43:46;4.90;99.90
46458;DHT22;32155;54.076;12.092;2024-03-23T19:46:12;4.90;99.90
46458;DHT22;32155;54.076;12.092;2024-03-23T19:48:41;4.90;99.90
46458;DHT22;32155;54.076;12.092;2024-03-23T19:51:07;4.90;99.90
46458;DHT22;32155;54.076;12.092;2024-03-23T19:53:35;4.90;99.90
46458;DHT22;32155;54.076;12.092;2024-03-23T19:56:03;4.90;99.90
46458;DHT22;32155;54.076;12.092;2024-03-23T19:58:42;4.90;99.90
46458;DHT22;32155;54.076;12.092;2024-03-23T20:01:17;4.80;99.90
46458;DHT22;32155;54.076;12.092;2024-03-23T20:03:47;4.90;99.90
46458;DHT22;32155;54.076;12.092;2024-03-23T20:06:13;4.90;99.90
46458;DHT22;32155;54.076;12.092;2024-03-23T20:08:43;4.80;99.90
46458;DHT22;32155;54.076;12.092;2024-03-23T20:11:10;4.80;99.90
46458;DHT22;32155;54.076;12.092;2024-03-23T20:13:49;4.80;99.90
46458;DHT22;32155;54.076;12.092;2024-03-23T20:16:18;4.80;99.90
46458;DHT22;32155;54.076;12.092;2024-03-23T20:18:46;4.70;99.90
46458;DHT22;32155;54.076;12.092;2024-03-23T20:21:14;4.70;99.90
46458;DHT22;32155;54.076;12.092;2024-03-23T20:23:42;4.70;99.90
46458;DHT22;32155;54.076;12.092;2024-03-23T20:26:08;4.70;99.90
46458;DHT22;32155;54.076;12.092;2024-03-23T20:28:36;4.70;99.90
46458;DHT22;32155;54.076;12.092;2024-03-23T20:31:19;4.70;99.90
46458;DHT22;32155;54.076;12.092;2024-03-23T20:33:47;4.60;99.90
46458;DHT22;32155;54.076;12.092;2024-03-23T20:36:17;4.60;99.90
46458;DHT22;32155;54.076;12.092;2024-03-23T20:38:49;4.60;99.90
46458;DHT22;32155;54.076;12.092;2024-03-23T20:41:21;4.60;99.90
46458;DHT22;32155;54.076;12.092;2024-03-23T20:43:49;4.60;99.90
46458;DHT22;32155;54.076;12.092;2024-03-23T20:46:17;4.60;99.90
46458;DHT22;32155;54.076;12.092;2024-03-23T20:48:48;4.50;99.90
46458;DHT22;32155;54.076;12.092;2024-03-23T20:51:19;4.50;99.90
46458;DHT22;32155;54.076;12.092;2024-03-23T20:53:53;4.50;99.90
46458;DHT22;32155;54.076;12.092;2024-03-23T20:56:22;4.50;99.90
46458;DHT22;32155;54.076;12.092;2024-03-23T20:58:53;4.50;99.90
46458;DHT22;32155;54.076;12.092;2024-03-23T21:01:24;4.50;99.90
46458;DHT22;32155;54.076;12.092;2024-03-23T21:04:00;4.40;99.90
46458;DHT22;32155;54.076;12.092;2024-03-23T21:06:36;4.30;99.90
46458;DHT22;32155;54.076;12.092;2024-03-23T21:09:09;4.40;99.90
46458;DHT22;32155;54.076;12.092;2024-03-23T21:11:39;4.40;99.90
46458;DHT22;32155;54.076;12.092;2024-03-23T21:14:05;4.30;99.90
46458;DHT22;32155;54.076;12.092;2024-03-23T21:16:30;4.30;99.90
46458;DHT22;32155;54.076;12.092;2024-03-23T21:19:01;4.30;99.90
46458;DHT22;32155;54.076;12.092;2024-03-23T21:21:28;4.20;99.90
46458;DHT22;32155;54.076;12.092;2024-03-23T21:23:56;4.10;99.90
46458;DHT22;32155;54.076;12.092;2024-03-23T21:26:22;4.20;99.90
46458;DHT22;32155;54.076;12.092;2024-03-23T21:28:50;4.20;99.90
46458;DHT22;32155;54.076;12.092;2024-03-23T21:31:16;4.20;99.90
46458;DHT22;32155;54.076;12.092;2024-03-23T21:33:41;4.20;99.90
46458;DHT22;32155;54.076;12.092;2024-03-23T21:36:19;4.20;99.90
46458;DHT22;32155;54.076;12.092;2024-03-23T21:38:45;4.10;99.90
46458;DHT22;32155;54.076;12.092;2024-03-23T21:41:19;4.10;99.90
46458;DHT22;32155;54.076;12.092;2024-03-23T21:46:46;4.10;99.90
46458;DHT22;32155;54.076;12.092;2024-03-23T21:49:12;4.10;99.90
46458;DHT22;32155;54.076;12.092;2024-03-23T21:51:50;4.00;99.90
46458;DHT22;32155;54.076;12.092;2024-03-23T21:54:16;4.10;99.90
46458;DHT22;32155;54.076;12.092;2024-03-23T21:56:42;4.00;99.90
46458;DHT22;32155;54.076;12.092;2024-03-23T21:59:11;4.00;99.90
46458;DHT22;32155;54.076;12.092;2024-03-23T22:01:57;4.10;99.90
46458;DHT22;32155;54.076;12.092;2024-03-23T22:04:38;4.00;99.90
46458;DHT22;32155;54.076;12.092;2024-03-23T22:07:04;4.00;99.90
46458;DHT22;32155;54.076;12.092;2024-03-23T22:09:35;4.00;99.90
46458;DHT22;32155;54.076;12.092;2024-03-23T22:12:02;4.00;99.90
46458;DHT22;32155;54.076;12.092;2024-03-23T22:14:31;4.00;99.90
46458;DHT22;32155;54.076;12.092;2024-03-23T22:17:00;4.00;99.90
46458;DHT22;32155;54.076;12.092;2024-03-23T22:19:37;4.00;99.90
46458;DHT22;32155;54.076;12.092;2024-03-23T22:22:06;4.00;99.90
46458;DHT22;32155;54.076;12.092;2024-03-23T22:24:41;4.00;99.90
46458;DHT22;32155;54.076;12.092;2024-03-23T22:27:12;4.00;99.90
46458;DHT22;32155;54.076;12.092;2024-03-23T22:29:41;4.00;99.90
46458;DHT22;32155;54.076;12.092;2024-03-23T22:32:10;4.10;99.90
46458;DHT22;32155;54.076;12.092;2024-03-23T22:34:48;4.00;99.90
46458;DHT22;32155;54.076;12.092;2024-03-23T22:43:19;3.90;99.90
46458;DHT22;32155;54.076;12.092;2024-03-23T22:45:51;3.90;99.90
46458;DHT22;32155;54.076;12.092;2024-03-23T22:48:17;3.90;99.90
46458;DHT22;32155;54.076;12.092;2024-03-23T22:50:43;3.90;99.90
46458;DHT22;32155;54.076;12.092;2024-03-23T22:53:09;4.00;99.90
46458;DHT22;32155;54.076;12.092;2024-03-23T22:55:35;4.00;99.90
46458;DHT22;32155;54.076;12.092;2024-03-23T22:58:06;4.00;99.90
46458;DHT22;32155;54.076;12.092;2024-03-23T23:00:31;4.00;99.90
46458;DHT22;32155;54.076;12.092;2024-03-23T23:02:58;4.00;99.90
46458;DHT22;32155;54.076;12.092;2024-03-23T23:05:24;4.00;99.90
46458;DHT22;32155;54.076;12.092;2024-03-23T23:07:50;4.00;99.90
46458;DHT22;32155;54.076;12.092;2024-03-23T23:10:22;3.90;99.90
46458;DHT22;32155;54.076;12.092;2024-03-23T23:13:06;4.00;99.90
46458;DHT22;32155;54.076;12.092;2024-03-23T23:15:45;3.90;99.90
46458;DHT22;32155;54.076;12.092;2024-03-23T23:18:24;3.90;99.90
46458;DHT22;32155;54.076;12.092;2024-03-23T23:21:16;3.90;99.90
46458;DHT22;32155;54.076;12.092;2024-03-23T23:23:46;3.90;99.90
46458;DHT22;32155;54.076;12.092;2024-03-23T23:26:19;3.90;99.90
46458;DHT22;32155;54.076;12.092;2024-03-23T23:28:48;3.90;99.90
46458;DHT22;32155;54.076;12.092;2024-03-23T23:31:15;3.90;99.90
46458;DHT22;32155;54.076;12.092;2024-03-23T23:33:49;3.80;99.90
46458;DHT22;32155;54.076;12.092;2024-03-23T23:36:15;3.90;99.90
46458;DHT22;32155;54.076;12.092;2024-03-23T23:38:40;3.80;99.90
46458;DHT22;32155;54.076;12.092;2024-03-23T23:41:12;3.90;99.90
46458;DHT22;32155;54.076;12.092;2024-03-23T23:43:38;3.90;99.90
46458;DHT22;32155;54.076;12.092;2024-03-23T23:46:12;3.90;99.90
46458;DHT22;32155;54.076;12.092;2024-03-23T23:49:00;3.90;99.90
46458;DHT22;32155;54.076;12.092;2024-03-23T23:54:20;3.90;99.90
46458;DHT22;32155;54.076;12.092;2024-03-23T23:56:59;3.90;99.90
46458;DHT22;32155;54.076;12.092;2024-03-23T23:59:27;3.90;99.90
